Aeroporto :
LOGIN :

Iscrizione | Disclaimer

   EN    FR    IT 

 










Sommario :    VFR   VFR Marginale   IFR   IFR Intensivo   IFR Molto Intensivo
Visibilità : 
Base nubi : 
>= 8 km
>= 3000ft
5 / 8 km
1000 / 3000 ft
1500m / 5 km
500 / 1000 ft
800 / 1500m
200 / 500 ft
< 800m
< 200 ft
Simboli :   Temporali  Nebbia  Neve Forte  Precipitazioni Forti  Vento > 20 kt
SIGMETs :   Varie  Temporali  Ghiacco  Turbolenza  Onda orograficha  Ceneri Vulcaniche






- Altitudine del aeroporto : 84 ft


LFBC - Cazaux

ULTIMO METAR :
  • 171200Z AUTO 25009KT 220V280 9999 // BKN024 BKN035 OVC090 13/10 Q1027

METARs OBSOLETI :
  • 171130Z AUTO 24009KT 210V270 9999 // BKN023 BKN029 OVC076 12/10 Q1027
  • 171100Z AUTO 23008KT 9999 // NSC 12/10 Q1027
  • 171030Z AUTO 23005KT 200V260 9999 // SCT022 SCT037 BKN074 11/10 Q1027
  • 171000Z AUTO 24004KT 210V270 9999 // FEW022 SCT054 BKN068 11/10 Q1026
  • 170930Z AUTO 24005KT 200V300 9999 // FEW010 SCT026 BKN050 10/10 Q1026
  • 170900Z AUTO 28005KT 230V310 5000 // BKN006 BKN012 OVC018 10/10 Q1026

TAF TAF LFBC
Valido dal 17 a 09 ore il 18 a 09 ore UTC


170800Z 1709/1809 27005KT 7000 RA SCT008 BKN016 OVC030
TEMPO 1709/1711 4000 BKN008 BKN012
BECMG 1710/1712 NSW SCT060
TEMPO 1712/1721 27015G25KT 4000 SHRA BKN025TCU
TEMPO 1802/1809 4000 SHRA BKN030TCU



MetMap, La meteo Aeronautica in un colpo d'occhio ! - Copyright ORBIFLY Dicembre 2007 - Disclaimer

ORBIFLY MET'MAP TEAM :

Programmazione e sviluppo : Alexandra Zaïnal
Concezione : Baudouin d'Aumeries
Aiuto per la programmazione : Marc-Olivier Méhu
Supporto tecnico e logistico : Manuel Goepfert
Aiuto per la traduzione : Arnaldo La Scala

Contatto : metmap@orbifly.com




FONTI E CREDITI :

   NOAA